createdAt,value
2022-07-30T00:01:51.960Z,49.30
2022-07-30T00:04:18.839Z,49.20
2022-07-30T00:06:45.508Z,49.00
2022-07-30T00:09:12.141Z,49.20
2022-07-30T00:11:38.799Z,49.40
2022-07-30T00:14:05.511Z,49.30
2022-07-30T00:16:32.253Z,49.40
2022-07-30T00:18:58.924Z,49.30
2022-07-30T00:21:35.841Z,49.20
2022-07-30T00:24:06.263Z,49.10
2022-07-30T00:26:32.939Z,49.40
2022-07-30T00:28:59.871Z,49.40
2022-07-30T00:31:26.532Z,49.20
2022-07-30T00:33:53.183Z,49.10
2022-07-30T00:36:19.831Z,49.20
2022-07-30T00:38:46.463Z,49.20
2022-07-30T00:41:13.179Z,50.20
2022-07-30T00:43:42.512Z,49.70
2022-07-30T00:46:09.211Z,49.60
2022-07-30T00:48:54.792Z,49.90
2022-07-30T00:51:21.661Z,50.00
2022-07-30T00:53:48.299Z,50.40
2022-07-30T00:56:14.939Z,50.60
2022-07-30T00:58:41.593Z,50.80
2022-07-30T01:01:08.320Z,50.90
2022-07-30T01:03:35.066Z,50.40
2022-07-30T01:06:01.692Z,50.70
2022-07-30T01:08:28.358Z,50.50
2022-07-30T01:10:54.977Z,50.60
2022-07-30T01:13:22.676Z,50.80
2022-07-30T01:15:49.350Z,50.40
2022-07-30T01:18:16.034Z,50.20
2022-07-30T01:21:06.599Z,50.50
2022-07-30T01:23:38.419Z,50.20
2022-07-30T01:26:09.944Z,50.40
2022-07-30T01:28:38.615Z,50.50
2022-07-30T01:31:05.683Z,50.70
2022-07-30T01:33:32.811Z,50.80
2022-07-30T01:35:59.540Z,51.10
2022-07-30T01:38:26.996Z,51.20
2022-07-30T01:40:57.757Z,50.80
2022-07-30T01:43:24.704Z,50.90
2022-07-30T01:45:52.083Z,50.80
2022-07-30T01:48:20.112Z,51.00
2022-07-30T01:50:47.181Z,51.00
2022-07-30T01:53:15.684Z,51.20
2022-07-30T01:55:42.346Z,51.30
2022-07-30T01:58:09.958Z,51.00
2022-07-30T02:00:40.630Z,51.20
2022-07-30T02:03:10.001Z,51.20
2022-07-30T02:05:37.250Z,50.90
2022-07-30T02:08:17.191Z,51.20
2022-07-30T02:10:49.970Z,51.30
2022-07-30T02:13:28.079Z,51.30
2022-07-30T02:16:30.679Z,51.00
2022-07-30T02:19:04.472Z,50.90
2022-07-30T02:21:36.727Z,51.10
2022-07-30T02:24:06.151Z,50.90
2022-07-30T02:26:32.815Z,50.90
2022-07-30T02:29:00.504Z,50.90
2022-07-30T02:31:27.672Z,50.80
2022-07-30T02:33:56.593Z,50.90
2022-07-30T02:36:23.264Z,50.90
2022-07-30T02:38:52.548Z,50.90
2022-07-30T02:41:23.404Z,51.10
2022-07-30T02:43:50.135Z,51.20
2022-07-30T02:46:18.035Z,51.10
2022-07-30T02:48:45.273Z,51.30
2022-07-30T02:51:11.981Z,51.30
2022-07-30T02:53:38.809Z,51.00
2022-07-30T02:56:05.961Z,50.90
2022-07-30T02:58:32.595Z,51.20
2022-07-30T03:00:59.244Z,51.10
2022-07-30T03:03:29.056Z,51.40
2022-07-30T03:05:56.211Z,51.70
2022-07-30T03:08:24.288Z,51.50
2022-07-30T03:10:50.935Z,51.60
2022-07-30T03:13:17.674Z,51.70
2022-07-30T03:15:48.855Z,51.90
2022-07-30T03:18:16.184Z,51.80
2022-07-30T03:20:44.261Z,51.70
2022-07-30T03:23:11.345Z,51.60
2022-07-30T03:25:38.220Z,51.60
2022-07-30T03:28:04.999Z,51.60
2022-07-30T03:30:31.901Z,51.80
2022-07-30T03:32:58.689Z,52.30
2022-07-30T03:35:26.352Z,51.90
2022-07-30T03:37:53.982Z,51.80
2022-07-30T03:40:20.695Z,51.90
2022-07-30T03:42:47.783Z,51.90
2022-07-30T03:45:14.504Z,51.90
2022-07-30T03:47:42.099Z,51.80
2022-07-30T03:50:09.450Z,52.10
2022-07-30T03:52:38.675Z,52.00
2022-07-30T03:55:08.962Z,52.10
2022-07-30T03:57:35.882Z,52.00
2022-07-30T04:00:08.232Z,51.90
2022-07-30T04:02:42.570Z,52.00
2022-07-30T04:05:09.520Z,52.00
2022-07-30T04:07:36.175Z,52.00
2022-07-30T04:10:11.703Z,52.10
2022-07-30T04:12:38.624Z,52.20
2022-07-30T04:16:04.998Z,52.30
2022-07-30T04:17:55.842Z,52.30
2022-07-30T04:20:24.807Z,52.30
2022-07-30T04:22:51.697Z,52.10
2022-07-30T04:25:22.974Z,52.00
2022-07-30T04:28:03.266Z,52.00
2022-07-30T04:30:31.013Z,52.10
2022-07-30T04:32:57.638Z,52.30
2022-07-30T04:35:51.056Z,52.30
2022-07-30T04:38:17.612Z,52.30
2022-07-30T04:40:44.269Z,52.30
2022-07-30T04:43:10.928Z,52.30
2022-07-30T04:45:39.508Z,52.40
2022-07-30T04:48:06.630Z,52.60
2022-07-30T04:50:34.014Z,52.50
2022-07-30T04:53:00.648Z,52.50
2022-07-30T04:55:27.325Z,52.60
2022-07-30T04:57:53.964Z,53.30
2022-07-30T05:00:20.646Z,52.40
2022-07-30T05:02:47.443Z,52.80
2022-07-30T05:05:15.341Z,52.50
2022-07-30T05:07:42.030Z,52.50
2022-07-30T05:10:09.547Z,52.80
2022-07-30T05:12:39.106Z,52.70
2022-07-30T05:15:07.229Z,52.70
2022-07-30T05:17:34.255Z,52.60
2022-07-30T05:20:01.048Z,53.20
2022-07-30T05:22:30.714Z,52.60
2022-07-30T05:24:57.636Z,52.50
2022-07-30T05:27:24.302Z,52.50
2022-07-30T05:29:50.951Z,52.40
2022-07-30T05:32:17.939Z,52.30
2022-07-30T05:34:50.071Z,52.30
2022-07-30T05:37:16.923Z,52.90
2022-07-30T05:40:02.907Z,52.00
2022-07-30T05:42:30.448Z,52.30
2022-07-30T05:44:57.087Z,51.70
2022-07-30T05:47:23.843Z,51.70
2022-07-30T05:49:50.472Z,51.80
2022-07-30T05:52:17.128Z,51.70
2022-07-30T05:54:44.248Z,51.60
2022-07-30T05:57:10.917Z,51.60
2022-07-30T05:59:37.545Z,51.40
2022-07-30T06:02:04.320Z,51.40
2022-07-30T06:04:31.029Z,51.40
2022-07-30T06:06:58.040Z,51.50
2022-07-30T06:09:36.107Z,51.50
2022-07-30T06:12:04.376Z,51.40
2022-07-30T06:14:32.108Z,51.40
2022-07-30T06:16:59.115Z,51.20
2022-07-30T06:19:26.291Z,51.20
2022-07-30T06:22:06.371Z,51.10
2022-07-30T06:24:34.153Z,50.90
2022-07-30T06:27:01.173Z,51.20
2022-07-30T06:29:28.124Z,50.50
2022-07-30T06:31:55.023Z,50.50
2022-07-30T06:34:21.682Z,50.60
2022-07-30T06:36:48.840Z,50.10
2022-07-30T06:39:53.864Z,49.80
2022-07-30T06:42:02.287Z,49.80
2022-07-30T06:44:29.020Z,49.70
2022-07-30T06:46:55.669Z,49.80
2022-07-30T06:49:22.883Z,49.80
2022-07-30T06:51:49.613Z,49.80
2022-07-30T06:54:16.263Z,49.60
2022-07-30T06:56:42.924Z,49.70
2022-07-30T06:59:10.498Z,49.60
2022-07-30T07:01:37.225Z,49.50
2022-07-30T07:04:04.351Z,49.30
2022-07-30T07:06:31.099Z,49.70
2022-07-30T07:08:57.749Z,49.20
2022-07-30T07:11:24.516Z,49.40
2022-07-30T07:13:51.203Z,48.50
2022-07-30T07:16:21.642Z,48.50
2022-07-30T07:18:48.574Z,48.70
2022-07-30T07:21:15.715Z,48.60
2022-07-30T07:23:42.596Z,48.10
2022-07-30T07:26:09.625Z,49.00
2022-07-30T07:28:36.355Z,48.30
2022-07-30T07:31:03.485Z,48.50
2022-07-30T07:33:30.236Z,48.90
2022-07-30T07:35:56.910Z,48.90
2022-07-30T07:38:23.573Z,49.30
2022-07-30T07:40:50.267Z,48.40
2022-07-30T07:43:16.899Z,48.50
2022-07-30T07:45:43.683Z,48.20
2022-07-30T07:48:10.365Z,47.80
2022-07-30T07:50:37.055Z,47.40
2022-07-30T07:53:04.007Z,47.30
2022-07-30T07:55:31.704Z,47.40
2022-07-30T07:58:00.364Z,47.00
2022-07-30T08:00:27.031Z,46.20
2022-07-30T08:02:53.881Z,45.60
2022-07-30T08:05:20.694Z,45.50
2022-07-30T08:07:47.357Z,45.90
2022-07-30T08:10:16.222Z,45.40
2022-07-30T08:12:43.201Z,45.10
2022-07-30T08:15:10.266Z,44.40
2022-07-30T08:17:41.277Z,44.20
2022-07-30T08:20:08.687Z,44.00
2022-07-30T08:22:35.347Z,43.80
2022-07-30T08:25:03.829Z,44.10
2022-07-30T08:27:30.639Z,44.50
2022-07-30T08:29:57.891Z,45.70
2022-07-30T08:32:25.246Z,45.80
2022-07-30T08:34:51.892Z,44.30
2022-07-30T08:37:19.303Z,44.60
2022-07-30T08:39:45.921Z,43.50
2022-07-30T08:42:13.526Z,43.40
2022-07-30T08:44:40.208Z,40.80
2022-07-30T08:47:07.846Z,40.90
2022-07-30T08:49:34.479Z,40.30
2022-07-30T08:52:01.413Z,39.40
2022-07-30T08:54:28.334Z,38.60
2022-07-30T08:56:54.991Z,37.90
2022-07-30T08:59:23.306Z,37.50
2022-07-30T09:01:52.011Z,37.90
2022-07-30T09:04:18.771Z,37.60
2022-07-30T09:06:45.692Z,38.40
2022-07-30T09:09:13.939Z,39.10
2022-07-30T09:11:40.643Z,39.40
2022-07-30T09:14:12.147Z,39.00
2022-07-30T09:16:39.163Z,40.10
2022-07-30T09:19:20.475Z,38.20
2022-07-30T09:22:00.109Z,36.40
2022-07-30T09:24:27.067Z,35.30
2022-07-30T09:27:05.270Z,34.90
2022-07-30T09:29:32.378Z,34.10
2022-07-30T09:32:06.211Z,34.40
2022-07-30T09:34:37.352Z,33.50
2022-07-30T09:37:16.746Z,32.80
2022-07-30T09:39:56.500Z,33.30
2022-07-30T09:42:27.471Z,34.10
2022-07-30T09:45:14.313Z,34.70
2022-07-30T09:47:44.981Z,36.60
2022-07-30T09:50:17.915Z,34.40
2022-07-30T09:53:09.480Z,34.30
2022-07-30T09:55:41.398Z,34.90
2022-07-30T09:58:09.069Z,33.70
2022-07-30T10:00:36.385Z,31.60
2022-07-30T10:03:21.780Z,30.90
2022-07-30T10:06:03.542Z,31.00
2022-07-30T10:08:50.795Z,28.80
2022-07-30T10:11:22.627Z,30.00
2022-07-30T10:13:53.415Z,27.80
2022-07-30T10:16:20.312Z,26.60
2022-07-30T10:18:50.611Z,26.60
2022-07-30T10:21:17.248Z,27.00
2022-07-30T10:24:46.654Z,26.30
2022-07-30T10:26:33.419Z,27.40
2022-07-30T10:29:01.747Z,27.00
2022-07-30T10:31:49.159Z,26.90
2022-07-30T10:34:17.151Z,26.70
2022-07-30T10:36:46.311Z,26.80
2022-07-30T10:39:15.579Z,25.90
2022-07-30T10:41:48.188Z,26.00
2022-07-30T10:44:38.908Z,26.90
2022-07-30T10:47:10.357Z,26.60
2022-07-30T10:49:41.081Z,26.00
2022-07-30T10:52:09.813Z,25.90
2022-07-30T10:54:44.470Z,25.20
2022-07-30T10:57:31.831Z,25.60
2022-07-30T11:00:04.250Z,25.30
2022-07-30T11:02:35.728Z,26.10
2022-07-30T11:05:18.179Z,25.80
2022-07-30T11:07:47.185Z,25.70
2022-07-30T11:10:49.999Z,25.00
2022-07-30T11:13:16.661Z,25.80
2022-07-30T11:15:56.598Z,24.60
2022-07-30T11:18:24.959Z,25.00
2022-07-30T11:21:14.896Z,25.00
2022-07-30T11:23:42.836Z,25.30
2022-07-30T11:26:14.405Z,25.30
2022-07-30T11:28:43.861Z,25.70
2022-07-30T11:31:56.639Z,26.10
2022-07-30T11:34:18.289Z,26.40
2022-07-30T11:37:18.843Z,25.50
2022-07-30T11:39:55.356Z,26.30
2022-07-30T11:42:36.471Z,25.50
2022-07-30T11:45:15.326Z,25.20
2022-07-30T11:47:46.472Z,25.50
2022-07-30T11:50:27.470Z,24.70
2022-07-30T11:53:01.878Z,24.90
2022-07-30T11:55:30.383Z,24.50
2022-07-30T11:57:57.624Z,23.90
2022-07-30T12:00:24.548Z,23.50
2022-07-30T12:02:51.411Z,22.70
2022-07-30T12:05:25.952Z,22.50
2022-07-30T12:07:57.856Z,22.20
2022-07-30T12:10:26.675Z,22.80
2022-07-30T12:12:54.234Z,23.30
2022-07-30T12:15:31.643Z,23.90
2022-07-30T12:18:24.127Z,24.60
2022-07-30T12:20:45.434Z,25.00
2022-07-30T12:23:12.978Z,25.50
2022-07-30T12:25:47.099Z,25.90
2022-07-30T12:28:27.945Z,26.10
2022-07-30T12:30:54.893Z,26.30
2022-07-30T12:33:22.865Z,26.70
2022-07-30T12:35:51.108Z,27.20
2022-07-30T12:38:18.421Z,27.40
2022-07-30T12:40:51.380Z,27.80
2022-07-30T12:43:18.185Z,27.80
2022-07-30T12:45:51.849Z,28.20
2022-07-30T12:48:21.139Z,28.20
2022-07-30T12:50:48.808Z,28.20
2022-07-30T12:53:15.544Z,28.30
2022-07-30T12:55:43.000Z,28.50
2022-07-30T12:58:10.426Z,28.80
2022-07-30T13:00:52.859Z,29.10
2022-07-30T13:03:23.561Z,29.30
2022-07-30T13:05:51.215Z,29.50
2022-07-30T13:08:42.128Z,29.50
2022-07-30T13:11:08.787Z,29.50
2022-07-30T13:13:35.523Z,29.30
2022-07-30T13:16:05.259Z,29.20
2022-07-30T13:18:32.799Z,29.40
2022-07-30T13:20:59.665Z,29.70
2022-07-30T13:23:27.500Z,30.40
2022-07-30T13:25:54.144Z,30.50
2022-07-30T13:28:20.815Z,30.50
2022-07-30T13:30:47.622Z,31.10
2022-07-30T13:33:14.528Z,31.00
2022-07-30T13:35:41.205Z,31.10
2022-07-30T13:38:07.950Z,31.40
2022-07-30T13:40:34.646Z,31.50
2022-07-30T13:43:01.595Z,31.40
2022-07-30T13:45:28.348Z,32.00
2022-07-30T13:47:55.264Z,32.00
2022-07-30T13:50:22.004Z,31.80
2022-07-30T13:52:49.182Z,32.00
2022-07-30T13:55:15.914Z,32.20
2022-07-30T13:57:45.080Z,32.00
2022-07-30T14:00:12.627Z,31.80
2022-07-30T14:02:39.402Z,31.70
2022-07-30T14:05:09.249Z,32.00
2022-07-30T14:07:39.306Z,32.00
2022-07-30T14:10:07.092Z,32.10
2022-07-30T14:12:37.888Z,32.20
2022-07-30T14:15:04.999Z,32.70
2022-07-30T14:17:31.754Z,33.20
2022-07-30T14:19:58.443Z,33.00
2022-07-30T14:22:25.112Z,32.70
2022-07-30T14:24:51.832Z,33.00
2022-07-30T14:27:20.384Z,33.00
2022-07-30T14:29:47.626Z,33.20
2022-07-30T14:32:14.289Z,32.90
2022-07-30T14:34:41.324Z,32.70
2022-07-30T14:37:15.084Z,32.50
2022-07-30T14:39:41.751Z,32.30
2022-07-30T14:42:08.425Z,32.30
2022-07-30T14:44:35.136Z,32.20
2022-07-30T14:47:01.818Z,32.20
2022-07-30T14:49:28.531Z,32.30
2022-07-30T14:51:55.554Z,32.50
2022-07-30T14:54:22.554Z,32.90
2022-07-30T14:56:49.482Z,32.70
2022-07-30T14:59:16.890Z,32.90
2022-07-30T15:01:43.887Z,33.00
2022-07-30T15:04:11.509Z,32.80
2022-07-30T15:06:38.233Z,32.60
